Time;durP1;ratioP1;P1;durP2;ratioP2;P2;SDS_P1;SDS_P2;PMS_P1;PMS_P2;Temp;Humidity;BMP_temperature;BMP_pressure;BME280_temperature;BME280_humidity;BME280_pressure;Samples;Min_cycle;Max_cycle;Signal;HPM_P1;HPM_P2
2023/03/10 00:00:49;;;;;;;4.50;2.30;;;10.50;99.90;;;;;;5080198;28;21019;-73
2023/03/10 00:03:15;;;;;;;4.23;2.10;;;10.50;99.90;;;;;;5078617;28;20507;-73
2023/03/10 00:05:42;;;;;;;5.90;2.30;;;10.60;99.90;;;;;;5079081;28;20498;-73
2023/03/10 00:08:08;;;;;;;6.57;2.10;;;10.50;99.90;;;;;;5083535;28;20532;-74
2023/03/10 00:10:35;;;;;;;4.50;2.43;;;10.50;99.90;;;;;;5089889;28;21019;-74
2023/03/10 00:13:02;;;;;;;7.20;1.80;;;10.50;99.90;;;;;;5080100;28;20478;-73
2023/03/10 00:15:30;;;;;;;7.03;2.10;;;10.50;99.90;;;;;;5078254;28;20452;-74
2023/03/10 00:17:58;;;;;;;5.80;2.50;;;10.50;99.90;;;;;;5079668;28;20456;-73
2023/03/10 00:20:25;;;;;;;5.87;1.90;;;10.50;99.90;;;;;;5082768;28;20457;-73
2023/03/10 00:22:51;;;;;;;5.33;1.80;;;10.60;99.90;;;;;;5080785;28;20559;-73
2023/03/10 00:25:18;;;;;;;7.83;2.43;;;10.50;99.90;;;;;;5080206;28;20554;-74
2023/03/10 00:27:45;;;;;;;5.97;1.97;;;10.60;99.90;;;;;;5086043;28;20490;-74
2023/03/10 00:30:12;;;;;;;5.10;2.03;;;10.60;99.90;;;;;;5078098;28;20452;-73
2023/03/10 00:32:39;;;;;;;6.90;2.10;;;10.60;99.90;;;;;;5080188;28;20455;-73
2023/03/10 00:35:07;;;;;;;2.30;1.70;;;10.60;99.90;;;;;;5073440;28;20538;-73
2023/03/10 00:37:36;;;;;;;1.97;1.77;;;10.60;99.90;;;;;;5071636;28;20450;-73
2023/03/10 00:40:05;;;;;;;3.50;1.93;;;10.50;99.90;;;;;;5083554;28;20458;-74
2023/03/10 00:42:32;;;;;;;2.27;1.63;;;10.50;99.90;;;;;;5081881;28;20955;-73
2023/03/10 00:44:59;;;;;;;5.53;2.07;;;10.50;99.90;;;;;;5081761;28;21001;-74
2023/03/10 00:47:26;;;;;;;2.23;1.70;;;10.50;99.90;;;;;;5081468;28;20485;-73
2023/03/10 00:49:53;;;;;;;3.63;2.10;;;10.50;99.90;;;;;;5077930;28;20512;-73
2023/03/10 00:52:21;;;;;;;5.77;1.90;;;10.50;99.90;;;;;;5084940;28;20461;-74
2023/03/10 00:54:47;;;;;;;2.00;1.80;;;10.50;99.90;;;;;;5082895;28;20482;-74
2023/03/10 00:57:14;;;;;;;4.10;2.00;;;10.50;99.90;;;;;;5080839;28;20462;-73
2023/03/10 00:59:41;;;;;;;2.00;1.80;;;10.50;99.90;;;;;;5076576;28;20463;-73
2023/03/10 01:02:07;;;;;;;2.33;1.70;;;10.60;99.90;;;;;;5072450;28;20467;-73
2023/03/10 01:04:34;;;;;;;4.63;1.87;;;10.50;99.90;;;;;;5081459;28;20467;-73
2023/03/10 01:07:01;;;;;;;1.60;1.50;;;10.60;99.90;;;;;;5086844;28;20558;-74
2023/03/10 01:09:28;;;;;;;4.03;1.90;;;10.50;99.90;;;;;;5079027;28;20871;-74
2023/03/10 01:11:55;;;;;;;4.13;1.80;;;10.50;99.90;;;;;;5073968;28;21037;-74
2023/03/10 01:14:22;;;;;;;1.60;1.50;;;10.50;99.90;;;;;;5075071;28;20488;-74
2023/03/10 01:16:48;;;;;;;3.63;1.63;;;10.40;99.90;;;;;;5076000;28;20916;-74
2023/03/10 01:19:17;;;;;;;4.93;2.07;;;10.40;99.90;;;;;;5087222;28;20501;-74
2023/03/10 01:21:43;;;;;;;1.90;1.80;;;10.40;99.90;;;;;;5078074;28;20462;-74
2023/03/10 01:24:13;;;;;;;2.57;1.60;;;10.30;99.90;;;;;;5079519;28;20470;-74
2023/03/10 01:26:41;;;;;;;2.00;1.60;;;10.30;99.90;;;;;;5072768;28;20472;-74
2023/03/10 01:29:08;;;;;;;1.50;1.40;;;10.20;99.90;;;;;;5072900;28;21033;-74
2023/03/10 01:31:35;;;;;;;2.40;1.37;;;10.20;99.90;;;;;;5081838;28;20450;-74
2023/03/10 01:34:01;;;;;;;2.17;1.57;;;10.20;99.90;;;;;;5090295;28;20526;-74
2023/03/10 01:36:28;;;;;;;1.67;1.50;;;10.20;99.90;;;;;;5084866;28;20500;-74
2023/03/10 01:38:56;;;;;;;1.60;1.50;;;10.10;99.90;;;;;;5081074;28;20518;-74
2023/03/10 01:41:23;;;;;;;1.47;1.37;;;10.10;99.90;;;;;;5078388;28;20466;-73
2023/03/10 01:43:52;;;;;;;2.97;1.80;;;10.00;99.90;;;;;;5086781;28;20531;-74
2023/03/10 01:46:50;;;;;;;2.43;1.80;;;9.90;99.90;;;;;;5093234;28;21136;-73
2023/03/10 01:49:37;;;;;;;4.10;1.60;;;9.90;99.90;;;;;;5076871;28;20445;-74
2023/03/10 01:52:08;;;;;;;3.67;1.80;;;9.90;99.90;;;;;;5081345;28;20456;-74
2023/03/10 01:54:42;;;;;;;2.47;1.70;;;9.90;99.90;;;;;;5077245;28;20523;-74
2023/03/10 01:57:10;;;;;;;1.97;1.77;;;9.80;99.90;;;;;;5082090;28;20810;-74
2023/03/10 01:59:40;;;;;;;3.20;2.33;;;9.80;99.90;;;;;;5082291;28;20878;-74
2023/03/10 02:02:07;;;;;;;5.20;2.37;;;9.80;99.90;;;;;;5084597;28;20861;-73
2023/03/10 02:04:36;;;;;;;1.70;1.60;;;9.70;99.90;;;;;;5081056;28;20470;-73
2023/03/10 02:07:05;;;;;;;2.60;1.73;;;9.70;99.90;;;;;;5078093;28;20955;-73
2023/03/10 02:09:35;;;;;;;5.43;1.97;;;9.70;99.90;;;;;;5081020;28;20484;-73
2023/03/10 02:12:03;;;;;;;10.17;2.63;;;9.70;99.90;;;;;;5086350;28;20954;-73
2023/03/10 02:14:31;;;;;;;3.60;2.27;;;9.70;99.90;;;;;;5086212;28;20813;-73
2023/03/10 02:16:59;;;;;;;3.43;2.13;;;9.60;99.90;;;;;;5079221;28;20881;-73
2023/03/10 02:19:40;;;;;;;3.60;2.60;;;9.60;99.90;;;;;;5082202;28;21012;-73
2023/03/10 02:22:11;;;;;;;2.60;2.27;;;9.60;99.90;;;;;;5074527;28;20518;-73
2023/03/10 02:24:45;;;;;;;4.70;1.97;;;9.50;99.90;;;;;;5084493;28;20528;-73
2023/03/10 02:27:19;;;;;;;2.10;1.90;;;9.50;99.90;;;;;;5088181;28;20509;-73
2023/03/10 02:29:51;;;;;;;2.40;1.90;;;9.50;99.90;;;;;;5079785;28;20522;-73
2023/03/10 02:32:19;;;;;;;3.37;1.67;;;9.50;99.90;;;;;;5078016;28;20497;-73
2023/03/10 02:34:45;;;;;;;8.10;2.03;;;9.50;99.90;;;;;;5075248;28;20499;-73
2023/03/10 02:37:23;;;;;;;2.53;1.80;;;9.50;99.90;;;;;;5083902;28;21013;-73
2023/03/10 02:39:49;;;;;;;1.70;1.60;;;9.50;99.90;;;;;;5075192;28;20513;-73
2023/03/10 02:42:18;;;;;;;1.87;1.77;;;9.50;99.90;;;;;;5082696;28;20456;-73
2023/03/10 02:44:47;;;;;;;2.40;2.20;;;9.40;99.90;;;;;;5079256;28;20478;-73
2023/03/10 02:47:14;;;;;;;3.90;2.13;;;9.50;99.90;;;;;;5077185;28;20510;-73
2023/03/10 02:49:41;;;;;;;2.43;2.07;;;9.50;99.90;;;;;;5084249;28;20564;-73
2023/03/10 02:52:15;;;;;;;3.90;2.60;;;9.50;99.90;;;;;;5082334;28;20530;-73
2023/03/10 02:54:42;;;;;;;2.83;1.93;;;9.40;99.90;;;;;;5079527;28;20471;-73
2023/03/10 02:57:09;;;;;;;4.00;1.80;;;9.50;99.90;;;;;;5078466;28;20452;-73
2023/03/10 02:59:37;;;;;;;1.93;1.73;;;9.50;99.90;;;;;;5075700;28;21014;-73
2023/03/10 03:02:03;;;;;;;6.60;1.80;;;9.60;99.90;;;;;;5073871;28;20461;-73
2023/03/10 03:04:30;;;;;;;2.70;1.70;;;9.60;99.90;;;;;;5087375;28;20483;-73
2023/03/10 03:06:57;;;;;;;4.00;1.60;;;9.60;99.90;;;;;;5086980;28;20509;-73
2023/03/10 03:09:24;;;;;;;2.20;1.90;;;9.70;99.90;;;;;;5082758;28;20487;-73
2023/03/10 03:11:50;;;;;;;2.77;1.77;;;9.70;99.90;;;;;;5077895;28;20449;-73
2023/03/10 03:14:17;;;;;;;1.87;1.70;;;9.70;99.90;;;;;;5075291;28;20500;-73
2023/03/10 03:16:45;;;;;;;2.40;1.70;;;9.70;99.90;;;;;;5083047;28;20525;-73
2023/03/10 03:19:11;;;;;;;2.53;1.70;;;9.70;99.90;;;;;;5088497;28;20886;-73
2023/03/10 03:21:38;;;;;;;5.67;2.10;;;9.70;99.90;;;;;;5082431;28;20466;-73
2023/03/10 03:24:05;;;;;;;4.33;1.80;;;9.70;99.90;;;;;;5081203;28;20491;-73
2023/03/10 03:26:32;;;;;;;2.33;1.80;;;9.60;99.90;;;;;;5075782;28;20465;-73
2023/03/10 03:28:59;;;;;;;2.87;1.93;;;9.60;99.90;;;;;;5086111;28;20488;-73
2023/03/10 03:31:25;;;;;;;5.43;2.10;;;9.60;99.90;;;;;;5087708;28;20471;-73
2023/03/10 03:33:53;;;;;;;2.70;1.63;;;9.70;99.90;;;;;;5084468;28;20546;-73
2023/03/10 03:36:20;;;;;;;3.20;2.03;;;9.80;99.90;;;;;;5082094;28;20454;-73
2023/03/10 03:38:47;;;;;;;2.77;1.87;;;9.80;99.90;;;;;;5076165;28;21022;-73
2023/03/10 03:41:13;;;;;;;2.73;1.87;;;9.80;99.90;;;;;;5079223;28;20461;-73
2023/03/10 03:43:40;;;;;;;4.80;1.77;;;9.70;99.90;;;;;;5082025;28;20474;-73
2023/03/10 03:46:06;;;;;;;4.40;1.73;;;9.60;99.90;;;;;;5090540;28;20505;-73
2023/03/10 03:48:33;;;;;;;1.80;1.57;;;9.60;99.90;;;;;;5080048;28;20560;-74
2023/03/10 03:51:02;;;;;;;6.53;2.27;;;9.50;99.90;;;;;;5075550;28;20459;-74
2023/03/10 03:53:29;;;;;;;3.30;2.10;;;9.40;99.90;;;;;;5072559;28;20472;-73
2023/03/10 03:55:55;;;;;;;5.93;2.07;;;9.30;99.90;;;;;;5076315;28;20491;-73
2023/03/10 03:58:22;;;;;;;2.00;1.80;;;9.30;99.90;;;;;;5088996;28;20456;-73
2023/03/10 04:00:48;;;;;;;3.30;1.90;;;9.20;99.90;;;;;;5083079;28;20462;-73
2023/03/10 04:03:15;;;;;;;5.30;2.00;;;9.20;99.90;;;;;;5087742;28;20874;-73
2023/03/10 04:05:42;;;;;;;5.00;2.30;;;9.20;99.90;;;;;;5076801;28;20527;-74
2023/03/10 04:08:11;;;;;;;2.47;1.90;;;9.20;99.90;;;;;;5082179;28;20480;-74
2023/03/10 04:10:38;;;;;;;2.53;1.80;;;9.10;99.90;;;;;;5086708;28;20510;-73
2023/03/10 04:13:05;;;;;;;2.50;1.87;;;9.10;99.90;;;;;;5085239;28;21025;-73
2023/03/10 04:15:31;;;;;;;8.13;2.10;;;9.10;99.90;;;;;;5083412;28;20517;-73
2023/03/10 04:17:58;;;;;;;2.90;1.80;;;9.10;99.90;;;;;;5071999;28;20485;-73
2023/03/10 04:20:25;;;;;;;3.30;1.80;;;9.00;99.90;;;;;;5073328;28;20465;-73
2023/03/10 04:22:52;;;;;;;1.90;1.80;;;9.00;99.90;;;;;;5082681;28;20461;-73
2023/03/10 04:25:20;;;;;;;2.20;2.00;;;9.00;99.90;;;;;;5089196;28;21049;-73
2023/03/10 04:27:47;;;;;;;3.40;1.80;;;9.10;99.90;;;;;;5078393;28;20461;-73
2023/03/10 04:30:15;;;;;;;2.57;1.70;;;9.00;99.90;;;;;;5079772;28;20513;-73
2023/03/10 04:32:41;;;;;;;1.97;1.77;;;9.00;99.90;;;;;;5074481;28;20476;-73
2023/03/10 04:35:11;;;;;;;1.87;1.77;;;9.00;99.90;;;;;;5071547;28;20473;-73
2023/03/10 04:37:38;;;;;;;2.13;1.60;;;9.00;99.90;;;;;;5085546;28;20541;-73
2023/03/10 04:40:08;;;;;;;4.80;1.70;;;9.00;99.90;;;;;;5084428;28;20468;-73
2023/03/10 04:42:36;;;;;;;5.67;1.83;;;9.00;99.90;;;;;;5079554;28;20497;-73
2023/03/10 04:45:03;;;;;;;1.80;1.70;;;9.00;99.90;;;;;;5078606;28;20472;-73
2023/03/10 04:47:30;;;;;;;2.13;1.70;;;9.10;99.90;;;;;;5072677;28;20864;-73
2023/03/10 04:49:57;;;;;;;4.57;1.90;;;9.10;99.90;;;;;;5074802;28;20493;-73
2023/03/10 04:52:23;;;;;;;3.33;1.90;;;9.10;99.90;;;;;;5084204;28;20448;-73
2023/03/10 04:54:50;;;;;;;3.87;1.93;;;9.10;99.90;;;;;;5080742;28;20473;-73
2023/03/10 04:57:17;;;;;;;3.93;1.83;;;9.10;99.90;;;;;;5076445;28;20865;-73
2023/03/10 04:59:44;;;;;;;3.93;1.90;;;9.10;99.90;;;;;;5077468;28;20495;-73
2023/03/10 05:02:11;;;;;;;4.87;1.80;;;9.10;99.90;;;;;;5073553;28;20814;-73
2023/03/10 05:04:38;;;;;;;10.53;2.00;;;9.10;99.90;;;;;;5085140;28;20525;-73
2023/03/10 05:07:05;;;;;;;7.67;2.07;;;9.10;99.90;;;;;;5083849;28;20450;-73
2023/03/10 05:09:34;;;;;;;3.63;2.10;;;9.20;99.90;;;;;;5080826;28;20543;-74
2023/03/10 05:12:00;;;;;;;4.40;2.03;;;9.20;99.90;;;;;;5079397;28;20499;-73
2023/03/10 05:14:27;;;;;;;4.40;1.73;;;9.20;99.90;;;;;;5076523;28;20472;-73
2023/03/10 05:16:55;;;;;;;7.27;2.00;;;9.30;99.90;;;;;;5085298;28;20461;-74
2023/03/10 05:19:21;;;;;;;3.77;1.77;;;9.30;99.90;;;;;;5089615;28;20455;-73
2023/03/10 05:21:48;;;;;;;5.03;2.20;;;9.30;99.90;;;;;;5078707;28;20514;-73
2023/03/10 05:24:15;;;;;;;3.93;1.83;;;9.30;99.90;;;;;;5083072;28;20527;-74
2023/03/10 05:26:42;;;;;;;3.23;1.90;;;9.20;99.90;;;;;;5075596;28;20462;-73
2023/03/10 05:29:08;;;;;;;4.67;2.37;;;9.20;99.90;;;;;;5074483;28;20535;-73
2023/03/10 05:31:35;;;;;;;10.03;2.30;;;9.20;99.90;;;;;;5087790;28;20460;-73
2023/03/10 05:34:03;;;;;;;5.30;2.10;;;9.10;99.90;;;;;;5085786;28;20989;-73
2023/03/10 05:36:29;;;;;;;3.53;1.83;;;9.10;99.90;;;;;;5083626;28;20452;-73
2023/03/10 05:38:56;;;;;;;3.67;2.27;;;9.10;99.90;;;;;;5076910;28;20486;-73
2023/03/10 05:41:23;;;;;;;4.90;2.50;;;9.10;99.90;;;;;;5075520;28;20469;-73
2023/03/10 05:43:49;;;;;;;2.97;2.53;;;9.10;99.90;;;;;;5086307;28;20879;-74
2023/03/10 05:46:16;;;;;;;5.67;2.37;;;9.10;99.90;;;;;;5079992;28;21070;-73
2023/03/10 05:48:43;;;;;;;2.33;2.10;;;9.10;99.90;;;;;;5079463;28;20483;-74
2023/03/10 05:51:12;;;;;;;2.37;2.17;;;9.10;99.90;;;;;;5078026;28;20519;-74
2023/03/10 05:53:40;;;;;;;8.80;2.50;;;9.10;99.90;;;;;;5075642;28;20530;-74
2023/03/10 05:56:09;;;;;;;10.90;2.80;;;9.10;99.90;;;;;;5086830;28;20536;-74
2023/03/10 05:58:36;;;;;;;7.63;2.60;;;9.10;99.90;;;;;;5082451;28;20449;-74
2023/03/10 06:01:04;;;;;;;6.53;2.90;;;9.00;99.90;;;;;;5086429;28;20461;-75
2023/03/10 06:03:31;;;;;;;8.87;2.70;;;9.00;99.90;;;;;;5080641;28;20475;-74
2023/03/10 06:05:57;;;;;;;4.93;2.63;;;8.90;99.90;;;;;;5078107;28;20457;-74
2023/03/10 06:08:26;;;;;;;7.83;3.00;;;8.90;99.90;;;;;;5074676;28;20453;-74
2023/03/10 06:10:53;;;;;;;5.00;2.80;;;8.90;99.90;;;;;;5083119;28;20464;-74
2023/03/10 06:13:20;;;;;;;4.70;3.10;;;8.90;99.90;;;;;;5088871;28;20473;-75
2023/03/10 06:15:50;;;;;;;7.60;3.00;;;8.90;99.90;;;;;;5085959;28;20483;-76
2023/03/10 06:18:17;;;;;;;3.90;3.20;;;9.00;99.90;;;;;;5082150;28;20451;-75
2023/03/10 06:20:44;;;;;;;6.70;3.20;;;9.00;99.90;;;;;;5082731;28;20460;-76
2023/03/10 06:23:11;;;;;;;4.60;2.70;;;9.00;99.90;;;;;;5076521;28;20515;-76
2023/03/10 06:25:39;;;;;;;6.63;2.93;;;9.10;99.90;;;;;;5091381;28;20866;-76
2023/03/10 06:28:06;;;;;;;4.87;2.30;;;9.10;99.90;;;;;;5079565;28;20474;-76
2023/03/10 06:30:33;;;;;;;3.63;2.83;;;9.10;99.90;;;;;;5079949;28;20542;-77
2023/03/10 06:33:00;;;;;;;6.30;3.10;;;9.10;99.90;;;;;;5080011;28;20520;-77
2023/03/10 06:35:28;;;;;;;3.43;2.43;;;9.10;99.90;;;;;;5075499;28;20463;-77
2023/03/10 06:37:55;;;;;;;4.13;2.23;;;9.10;99.90;;;;;;5082232;28;20457;-77
2023/03/10 06:40:22;;;;;;;11.87;2.30;;;9.10;99.90;;;;;;5089491;28;20475;-77
2023/03/10 06:42:49;;;;;;;4.70;2.30;;;9.10;99.90;;;;;;5079132;28;20530;-76
2023/03/10 06:45:17;;;;;;;6.70;2.43;;;9.10;99.90;;;;;;5089036;28;20536;-77
2023/03/10 06:47:44;;;;;;;6.80;2.20;;;9.10;99.90;;;;;;5084952;28;20530;-77
2023/03/10 06:50:12;;;;;;;11.03;2.80;;;9.20;99.90;;;;;;5078795;28;20561;-77
2023/03/10 06:52:41;;;;;;;6.30;2.77;;;9.20;99.90;;;;;;5083312;28;20537;-77
2023/03/10 06:55:09;;;;;;;5.53;2.37;;;9.20;99.90;;;;;;5082806;28;20478;-77
2023/03/10 06:57:36;;;;;;;2.33;2.13;;;9.20;99.90;;;;;;5082488;28;20461;-77
2023/03/10 07:00:06;;;;;;;5.47;2.60;;;9.30;99.90;;;;;;5082004;28;20458;-78
2023/03/10 07:02:33;;;;;;;4.30;2.23;;;9.30;99.90;;;;;;5083160;28;20456;-77
2023/03/10 07:05:00;;;;;;;3.67;2.30;;;9.30;99.90;;;;;;5079348;28;20898;-77
2023/03/10 07:07:26;;;;;;;4.50;2.10;;;9.50;99.90;;;;;;5088967;28;21183;-77
2023/03/10 07:09:53;;;;;;;7.50;2.77;;;9.70;99.90;;;;;;5083919;28;20484;-77
2023/03/10 07:12:20;;;;;;;3.60;1.90;;;9.70;99.90;;;;;;5084680;28;20452;-77
2023/03/10 07:14:46;;;;;;;7.00;2.07;;;9.60;99.90;;;;;;5084263;28;20888;-77
2023/03/10 07:17:14;;;;;;;2.57;1.73;;;9.60;99.90;;;;;;5076919;28;20457;-77
2023/03/10 07:19:41;;;;;;;7.33;2.10;;;9.50;99.90;;;;;;5081406;28;20449;-77
2023/03/10 07:22:08;;;;;;;6.60;2.87;;;9.50;99.90;;;;;;5085067;28;20500;-76
2023/03/10 07:24:34;;;;;;;5.07;2.57;;;9.40;99.90;;;;;;5080032;28;20478;-77
2023/03/10 07:27:01;;;;;;;5.67;2.50;;;9.30;99.90;;;;;;5080696;28;20463;-77
2023/03/10 07:29:28;;;;;;;6.00;2.37;;;9.30;99.90;;;;;;5076472;28;20534;-78
2023/03/10 07:31:55;;;;;;;5.23;2.60;;;9.20;99.90;;;;;;5076951;28;20501;-77
2023/03/10 07:34:23;;;;;;;8.60;3.30;;;9.20;99.90;;;;;;5078106;28;20538;-76
2023/03/10 07:36:50;;;;;;;10.70;3.40;;;9.20;99.90;;;;;;5075698;28;20475;-77
2023/03/10 07:39:16;;;;;;;8.80;3.37;;;9.10;99.90;;;;;;5079000;28;20466;-77
2023/03/10 07:41:43;;;;;;;9.90;4.23;;;9.10;99.90;;;;;;5077039;28;20494;-76
2023/03/10 07:44:10;;;;;;;10.67;3.60;;;9.00;99.90;;;;;;5079885;28;20533;-77
2023/03/10 07:46:36;;;;;;;11.37;3.63;;;9.00;99.90;;;;;;5082154;28;20498;-74
2023/03/10 07:49:03;;;;;;;4.33;2.63;;;9.00;99.90;;;;;;5089701;28;20837;-77
2023/03/10 07:51:31;;;;;;;6.70;2.57;;;9.10;99.90;;;;;;5075525;28;20462;-77
2023/03/10 07:53:58;;;;;;;4.97;2.13;;;9.20;99.90;;;;;;5078298;28;20529;-76
2023/03/10 07:56:25;;;;;;;5.30;2.17;;;9.30;99.90;;;;;;5073885;28;20532;-76
2023/03/10 07:58:52;;;;;;;5.60;2.30;;;9.50;99.90;;;;;;5082633;28;20463;-76
2023/03/10 08:01:19;;;;;;;9.03;2.80;;;9.50;99.90;;;;;;5087430;28;20445;-77
2023/03/10 08:03:47;;;;;;;6.37;2.80;;;9.60;99.90;;;;;;5078771;28;20472;-77
2023/03/10 08:06:17;;;;;;;8.10;2.37;;;9.50;99.90;;;;;;5079579;28;20464;-76
2023/03/10 08:08:45;;;;;;;9.20;2.60;;;9.60;99.90;;;;;;5072135;28;20965;-77
2023/03/10 08:11:12;;;;;;;4.83;2.27;;;9.60;99.90;;;;;;5075651;28;20495;-77
2023/03/10 08:13:39;;;;;;;4.27;1.93;;;9.70;99.90;;;;;;5077342;28;20545;-76
2023/03/10 08:16:06;;;;;;;5.53;2.03;;;9.80;99.90;;;;;;5074475;28;20536;-77
2023/03/10 08:18:33;;;;;;;7.77;2.60;;;9.90;99.90;;;;;;5079427;28;20886;-77
2023/03/10 08:21:03;;;;;;;6.70;2.73;;;10.00;99.90;;;;;;5083065;28;20506;-76
2023/03/10 08:23:30;;;;;;;7.60;3.37;;;10.10;99.90;;;;;;5078495;28;20624;-77
2023/03/10 08:26:00;;;;;;;8.77;3.63;;;10.20;99.90;;;;;;5072383;28;20512;-76
2023/03/10 08:28:29;;;;;;;4.97;3.23;;;10.30;99.90;;;;;;5082564;28;20453;-75
2023/03/10 08:30:56;;;;;;;9.70;3.50;;;10.30;99.90;;;;;;5079529;28;20497;-77
2023/03/10 08:33:25;;;;;;;6.80;3.67;;;10.30;99.90;;;;;;5082512;28;20486;-76
2023/03/10 08:36:01;;;;;;;11.77;3.60;;;10.30;99.90;;;;;;5080184;28;20465;-77
2023/03/10 08:38:28;;;;;;;5.40;3.40;;;10.40;99.90;;;;;;5076606;28;20463;-76
2023/03/10 08:40:54;;;;;;;10.60;3.70;;;10.40;99.90;;;;;;5087501;28;20446;-77
2023/03/10 08:43:22;;;;;;;7.43;3.47;;;10.50;99.90;;;;;;5072929;28;20896;-76
2023/03/10 08:45:49;;;;;;;15.23;3.27;;;10.40;99.90;;;;;;5082011;28;20508;-76
2023/03/10 08:48:15;;;;;;;7.33;4.00;;;10.30;99.90;;;;;;5076182;28;20454;-74
2023/03/10 08:50:42;;;;;;;6.23;3.67;;;10.20;99.90;;;;;;5081906;28;20483;-76
2023/03/10 08:53:11;;;;;;;11.13;4.00;;;10.10;99.90;;;;;;5078314;28;20459;-76
2023/03/10 08:55:38;;;;;;;14.27;3.80;;;10.10;99.90;;;;;;5078626;28;20974;-76
2023/03/10 08:58:04;;;;;;;9.20;3.93;;;10.00;99.90;;;;;;5085506;28;20512;-76
2023/03/10 09:00:32;;;;;;;4.40;2.60;;;10.00;99.90;;;;;;5080075;28;20455;-76
2023/03/10 09:02:59;;;;;;;6.33;2.17;;;9.90;99.90;;;;;;5074965;28;21020;-76
2023/03/10 09:05:26;;;;;;;2.37;1.90;;;9.90;99.90;;;;;;5077307;28;20506;-76
2023/03/10 09:07:53;;;;;;;9.80;1.90;;;10.00;99.90;;;;;;5073987;28;20543;-76
2023/03/10 09:10:20;;;;;;;4.13;2.57;;;10.10;99.90;;;;;;5083964;28;20486;-76
2023/03/10 09:12:46;;;;;;;3.63;1.50;;;10.10;99.90;;;;;;5080575;28;20491;-76
2023/03/10 09:15:13;;;;;;;3.20;1.50;;;10.20;99.90;;;;;;5074765;28;20845;-76
2023/03/10 09:17:41;;;;;;;3.20;1.50;;;10.20;99.90;;;;;;5077558;28;20523;-76
2023/03/10 09:20:09;;;;;;;2.80;1.70;;;10.30;99.90;;;;;;5071707;28;20459;-76
2023/03/10 09:22:36;;;;;;;3.87;1.80;;;10.40;99.90;;;;;;5085858;28;20461;-76
2023/03/10 09:25:02;;;;;;;1.73;1.50;;;10.50;99.90;;;;;;5087167;28;20500;-76
2023/03/10 09:27:29;;;;;;;3.70;1.63;;;10.70;99.90;;;;;;5079030;28;20500;-76
2023/03/10 09:29:55;;;;;;;4.47;1.90;;;10.90;99.90;;;;;;5075201;28;20518;-76
2023/03/10 09:32:22;;;;;;;3.60;1.37;;;11.10;99.90;;;;;;5074844;28;20458;-76
2023/03/10 09:34:50;;;;;;;3.03;1.67;;;11.30;99.90;;;;;;5073065;28;20475;-77
2023/03/10 09:37:17;;;;;;;3.87;1.80;;;11.80;99.90;;;;;;5081195;28;20458;-76
2023/03/10 09:39:43;;;;;;;4.10;1.73;;;12.40;99.90;;;;;;5082606;28;20505;-77
2023/03/10 09:42:37;;;;;;;2.43;1.50;;;13.00;99.90;;;;;;5075623;28;20496;-77
2023/03/10 09:45:28;;;;;;;2.83;1.37;;;12.80;99.90;;;;;;5081642;28;20474;-77
2023/03/10 09:48:36;;;;;;;1.93;1.67;;;12.90;99.90;;;;;;5073382;28;20460;-76
2023/03/10 09:51:11;;;;;;;1.73;1.50;;;13.10;99.90;;;;;;5073483;28;20486;-76
2023/03/10 09:53:53;;;;;;;3.07;1.87;;;13.00;99.90;;;;;;5083300;28;20536;-76
2023/03/10 09:56:23;;;;;;;7.73;2.00;;;13.00;99.90;;;;;;5077106;28;20456;-77
2023/03/10 09:58:53;;;;;;;5.40;1.97;;;12.90;99.90;;;;;;5081873;28;20456;-77
2023/03/10 10:01:24;;;;;;;6.27;2.00;;;13.10;99.90;;;;;;5082366;28;20448;-76
2023/03/10 10:03:53;;;;;;;8.20;2.00;;;13.40;99.90;;;;;;5088387;28;20919;-77
2023/03/10 10:06:27;;;;;;;6.33;1.87;;;13.50;99.90;;;;;;5075365;28;20643;-76
2023/03/10 10:08:58;;;;;;;8.63;2.37;;;13.50;99.90;;;;;;5086221;28;20463;-76
2023/03/10 10:11:25;;;;;;;10.53;2.40;;;13.50;99.90;;;;;;5081969;28;20703;-76
2023/03/10 10:13:55;;;;;;;5.47;1.63;;;13.20;99.90;;;;;;5075164;28;20540;-76
2023/03/10 10:16:30;;;;;;;7.87;1.80;;;12.90;99.90;;;;;;5088371;28;20463;-76
2023/03/10 10:19:03;;;;;;;4.60;1.63;;;12.60;99.90;;;;;;5076644;28;20527;-76
2023/03/10 10:21:40;;;;;;;7.93;1.87;;;12.30;99.90;;;;;;5085705;28;20502;-76
2023/03/10 10:24:07;;;;;;;4.97;2.23;;;12.20;99.90;;;;;;5087173;28;20476;-77
2023/03/10 10:26:34;;;;;;;5.57;1.93;;;12.20;99.90;;;;;;5077882;28;20446;-77
2023/03/10 10:29:05;;;;;;;5.73;2.30;;;12.20;99.90;;;;;;5074133;28;20459;-76
2023/03/10 10:31:33;;;;;;;3.40;1.80;;;12.10;99.90;;;;;;5085344;28;20511;-77
2023/03/10 10:34:02;;;;;;;7.30;1.90;;;12.10;99.90;;;;;;5082625;28;20899;-76
2023/03/10 10:36:31;;;;;;;6.60;2.40;;;11.80;99.90;;;;;;5077563;28;20464;-77
2023/03/10 10:38:59;;;;;;;7.23;2.60;;;11.50;99.90;;;;;;5077112;28;20492;-77
2023/03/10 10:41:29;;;;;;;8.70;2.70;;;11.70;99.90;;;;;;5075552;28;21030;-77
2023/03/10 10:43:58;;;;;;;5.77;1.93;;;12.10;99.90;;;;;;5074684;28;20491;-77
2023/03/10 10:46:28;;;;;;;8.03;1.80;;;12.40;99.90;;;;;;5079266;28;20466;-77
2023/03/10 10:49:06;;;;;;;10.53;2.17;;;12.60;99.90;;;;;;5080577;28;20462;-75
2023/03/10 10:51:36;;;;;;;8.97;1.90;;;12.70;99.90;;;;;;5075639;28;20488;-76
2023/03/10 10:54:19;;;;;;;3.30;1.70;;;12.80;99.90;;;;;;5081871;28;20536;-76
2023/03/10 10:56:53;;;;;;;3.00;1.40;;;13.00;99.90;;;;;;5078230;28;20458;-76
2023/03/10 10:59:23;;;;;;;2.53;1.20;;;12.80;99.90;;;;;;5078981;28;20455;-77
2023/03/10 11:01:52;;;;;;;6.40;2.00;;;12.90;99.90;;;;;;5080124;28;20505;-77
2023/03/10 11:04:20;;;;;;;6.23;1.67;;;12.90;99.90;;;;;;5081881;28;20982;-77
2023/03/10 11:06:47;;;;;;;2.63;1.70;;;13.10;99.90;;;;;;5083045;28;20457;-77
2023/03/10 11:09:17;;;;;;;3.40;1.50;;;13.20;99.90;;;;;;5074470;28;20532;-77
2023/03/10 11:11:53;;;;;;;4.37;1.87;;;13.20;99.90;;;;;;5084092;28;20872;-77
2023/03/10 11:14:32;;;;;;;2.13;1.40;;;13.20;99.90;;;;;;5079169;28;20481;-77
2023/03/10 11:17:03;;;;;;;2.20;1.60;;;13.20;99.90;;;;;;5084447;28;20463;-77
2023/03/10 11:19:36;;;;;;;2.70;1.40;;;13.00;99.90;;;;;;5085995;28;20512;-76
2023/03/10 11:22:13;;;;;;;2.43;1.60;;;12.80;99.90;;;;;;5073040;28;20452;-77
2023/03/10 11:24:48;;;;;;;3.87;1.60;;;12.70;99.90;;;;;;5082682;28;20525;-79
2023/03/10 11:27:24;;;;;;;1.23;1.10;;;12.60;99.90;;;;;;5082575;28;21028;-77
2023/03/10 11:30:03;;;;;;;1.50;1.40;;;12.50;99.90;;;;;;5074419;28;20453;-77
2023/03/10 11:32:39;;;;;;;3.53;1.50;;;12.80;99.90;;;;;;5086340;28;21017;-76
2023/03/10 11:35:21;;;;;;;3.20;1.50;;;12.90;99.90;;;;;;5077292;28;20471;-77
2023/03/10 11:37:51;;;;;;;1.77;1.33;;;12.90;99.90;;;;;;5074120;28;20494;-78
2023/03/10 11:40:27;;;;;;;4.47;1.60;;;13.30;99.90;;;;;;5087911;28;20970;-78
2023/03/10 11:43:01;;;;;;;1.80;1.30;;;13.60;99.90;;;;;;5082076;28;20512;-78
2023/03/10 11:45:32;;;;;;;1.40;1.20;;;13.80;99.90;;;;;;5088757;28;20507;-77
2023/03/10 11:48:16;;;;;;;1.80;1.43;;;13.50;99.90;;;;;;5079921;28;20460;-77
2023/03/10 11:50:51;;;;;;;1.80;1.40;;;13.70;99.90;;;;;;5075385;28;20868;-77
2023/03/10 11:53:28;;;;;;;2.23;1.30;;;13.70;99.90;;;;;;5084434;28;20562;-77
2023/03/10 11:55:58;;;;;;;2.23;1.23;;;13.50;99.90;;;;;;5079526;28;21013;-77
2023/03/10 11:58:31;;;;;;;4.03;1.87;;;12.90;99.90;;;;;;5077341;28;20451;-78
2023/03/10 12:00:59;;;;;;;4.70;1.40;;;12.60;99.90;;;;;;5074084;28;20468;-75
2023/03/10 12:03:40;;;;;;;3.10;1.50;;;12.40;99.90;;;;;;5084090;28;20470;-77
2023/03/10 12:06:12;;;;;;;2.33;1.30;;;12.30;99.90;;;;;;5091358;28;20524;-78
2023/03/10 12:08:40;;;;;;;2.70;1.20;;;12.20;99.90;;;;;;5073423;28;20869;-77
2023/03/10 12:11:15;;;;;;;4.00;1.47;;;12.30;99.90;;;;;;5077659;28;20492;-77
2023/03/10 12:13:45;;;;;;;1.53;1.43;;;12.60;99.90;;;;;;5074896;28;20492;-78
2023/03/10 12:16:18;;;;;;;2.23;1.50;;;12.70;99.90;;;;;;5072488;28;20462;-77
2023/03/10 12:18:45;;;;;;;2.03;1.20;;;12.80;99.90;;;;;;5080547;28;20500;-77
2023/03/10 12:21:18;;;;;;;1.67;1.30;;;12.70;99.90;;;;;;5077931;28;20518;-77
2023/03/10 12:23:46;;;;;;;3.37;1.50;;;12.60;99.90;;;;;;5084628;28;20546;-77
2023/03/10 12:26:35;;;;;;;1.70;1.47;;;12.40;99.90;;;;;;5079712;28;20460;-77
2023/03/10 12:29:23;;;;;;;1.50;1.37;;;12.20;99.90;;;;;;5074476;28;20517;-77
2023/03/10 12:31:52;;;;;;;1.63;1.40;;;12.10;99.90;;;;;;5082553;28;20574;-76
2023/03/10 12:34:21;;;;;;;2.90;1.90;;;12.20;99.90;;;;;;5085512;28;20471;-76
2023/03/10 12:36:51;;;;;;;1.13;1.03;;;12.20;99.90;;;;;;5081288;28;20463;-75
2023/03/10 12:39:31;;;;;;;5.57;1.57;;;12.20;99.90;;;;;;5079518;28;20487;-76
2023/03/10 12:42:00;;;;;;;2.83;1.60;;;12.10;99.90;;;;;;5074158;28;20941;-76
2023/03/10 12:44:46;;;;;;;2.13;1.60;;;12.10;99.90;;;;;;5073580;28;20533;-76
2023/03/10 12:47:36;;;;;;;3.30;1.40;;;12.10;99.90;;;;;;5092633;28;20450;-77
2023/03/10 12:50:18;;;;;;;4.40;1.40;;;12.20;99.90;;;;;;5081476;28;20451;-77
2023/03/10 12:52:53;;;;;;;1.40;1.30;;;12.10;99.90;;;;;;5080675;28;20468;-75
2023/03/10 12:55:23;;;;;;;3.60;1.80;;;12.10;99.90;;;;;;5075017;28;20474;-75
2023/03/10 12:58:08;;;;;;;1.50;1.40;;;11.80;99.90;;;;;;5076175;28;20456;-75
2023/03/10 13:00:47;;;;;;;3.80;1.40;;;11.70;99.90;;;;;;5076442;28;20953;-76